Time;durP1;ratioP1;P1;durP2;ratioP2;P2;SDS_P1;SDS_P2;PMS_P1;PMS_P2;Temp;Humidity;BMP_temperature;BMP_pressure;BME280_temperature;BME280_humidity;BME280_pressure;Samples;Min_cycle;Max_cycle;Signal;HPM_P1;HPM_P2
2022/01/20 00:00:13;;;;;;;19.98;12.57;;;0.40;99.90;;;;;;5007910;28;20051;-60
2022/01/20 00:02:39;;;;;;;20.85;12.68;;;0.30;99.90;;;;;;5048631;28;20040;-61
2022/01/20 00:05:13;;;;;;;19.20;12.07;;;0.30;99.90;;;;;;5073687;28;20064;-61
2022/01/20 00:08:05;;;;;;;19.08;11.75;;;0.20;99.90;;;;;;5055569;28;20115;-61
2022/01/20 00:26:54;;;;;;;19.83;12.50;;;0.00;99.90;;;;;;5073210;28;20043;-61
2022/01/20 00:29:32;;;;;;;19.17;12.45;;;0.10;99.90;;;;;;5073126;28;20110;-61
2022/01/20 00:32:10;;;;;;;17.45;12.05;;;0.10;99.90;;;;;;5073025;28;20282;-61
2022/01/20 00:35:06;;;;;;;19.60;12.98;;;0.20;99.90;;;;;;5073012;28;20111;-62
2022/01/20 00:37:27;;;;;;;17.17;11.80;;;0.10;99.90;;;;;;5072817;28;20167;-61
2022/01/20 00:39:54;;;;;;;18.50;11.95;;;0.10;99.90;;;;;;5071718;28;20119;-61
2022/01/20 00:42:21;;;;;;;18.35;12.35;;;0.20;99.90;;;;;;5072879;28;20391;-61
2022/01/20 00:44:47;;;;;;;17.83;11.77;;;0.10;99.90;;;;;;5072979;28;20052;-61
2022/01/20 00:47:15;;;;;;;16.48;11.82;;;0.10;99.90;;;;;;5071637;28;20024;-61
2022/01/20 00:49:43;;;;;;;19.85;11.77;;;0.10;99.90;;;;;;5072878;28;20032;-61
2022/01/20 00:52:09;;;;;;;18.17;12.02;;;0.00;99.90;;;;;;5072872;28;20437;-61
2022/01/20 00:54:36;;;;;;;18.42;12.45;;;-0.10;99.90;;;;;;5072877;28;20033;-61
2022/01/20 00:57:03;;;;;;;20.23;14.05;;;-0.10;99.90;;;;;;5072804;28;20031;-61
2022/01/20 00:59:30;;;;;;;22.25;13.75;;;-0.10;99.90;;;;;;5071969;28;20036;-61
2022/01/20 01:01:58;;;;;;;19.73;13.15;;;-0.10;99.90;;;;;;5084488;28;20035;-61
2022/01/20 01:04:25;;;;;;;22.38;14.98;;;-0.10;99.90;;;;;;5092440;28;20024;-61
2022/01/20 01:09:39;;;;;;;19.92;13.35;;;-0.10;99.90;;;;;;5091979;28;20492;-61
2022/01/20 01:12:09;;;;;;;19.25;13.68;;;0.00;99.90;;;;;;5092462;28;20040;-61
2022/01/20 01:14:35;;;;;;;22.85;13.85;;;0.10;99.90;;;;;;5092309;28;20461;-61
2022/01/20 01:24:45;;;;;;;28.75;18.55;;;0.10;99.90;;;;;;5091869;28;20029;-62
2022/01/20 01:27:13;;;;;;;29.52;21.05;;;0.10;99.90;;;;;;5092251;28;20020;-61
2022/01/20 01:32:40;;;;;;;54.33;35.28;;;0.10;99.90;;;;;;5090982;28;20081;-61
2022/01/20 01:35:09;;;;;;;61.28;37.90;;;0.20;99.90;;;;;;5089148;28;20032;-61
2022/01/20 01:38:24;;;;;;;60.78;40.55;;;0.20;99.90;;;;;;5092182;28;20040;-61
2022/01/20 01:40:29;;;;;;;61.38;41.05;;;0.10;99.90;;;;;;5091514;28;20097;-61
2022/01/20 01:42:55;;;;;;;61.50;40.95;;;0.10;99.90;;;;;;5091167;28;20038;-61
2022/01/20 01:45:37;;;;;;;61.17;39.78;;;0.20;99.90;;;;;;5074169;28;20029;-61
2022/01/20 01:48:07;;;;;;;65.78;41.28;;;0.20;99.90;;;;;;5073975;28;20043;-61
2022/01/20 01:50:34;;;;;;;60.15;39.85;;;0.20;99.90;;;;;;5073792;28;20032;-61
2022/01/20 01:53:04;;;;;;;61.30;39.67;;;0.20;99.90;;;;;;5091680;28;20028;-61
2022/01/20 01:55:31;;;;;;;56.42;36.40;;;0.20;99.90;;;;;;5074051;28;20036;-61
2022/01/20 01:57:57;;;;;;;57.17;36.58;;;0.20;99.90;;;;;;5092315;28;20036;-61
2022/01/20 02:00:27;;;;;;;55.22;36.10;;;0.30;99.90;;;;;;5090998;28;20040;-61
2022/01/20 02:02:53;;;;;;;55.22;34.80;;;0.30;99.90;;;;;;5092155;28;20039;-61
2022/01/20 02:05:20;;;;;;;50.53;34.78;;;0.30;99.90;;;;;;5090914;28;20036;-62
2022/01/20 02:21:07;;;;;;;46.10;32.35;;;0.10;99.90;;;;;;5095673;28;20028;-61
2022/01/20 02:23:34;;;;;;;48.13;31.63;;;0.00;99.90;;;;;;5093892;28;20078;-62
2022/01/20 02:26:01;;;;;;;48.47;31.90;;;0.00;99.90;;;;;;5076686;28;20551;-62
2022/01/20 02:28:27;;;;;;;46.05;30.25;;;0.00;99.90;;;;;;5091016;28;20119;-62
2022/01/20 02:30:54;;;;;;;46.75;29.75;;;0.00;99.90;;;;;;5092400;28;20029;-61
2022/01/20 02:33:23;;;;;;;49.45;32.35;;;0.00;99.90;;;;;;5093827;28;20028;-62
2022/01/20 02:35:55;;;;;;;49.88;31.73;;;0.10;99.90;;;;;;5072676;28;20043;-62
2022/01/20 02:38:46;;;;;;;46.63;30.23;;;0.00;99.90;;;;;;5092829;28;20032;-62
2022/01/20 02:46:42;;;;;;;42.75;28.73;;;0.10;99.90;;;;;;5090169;28;20035;-60
2022/01/20 02:49:13;;;;;;;44.33;30.90;;;0.20;99.90;;;;;;5094135;28;20058;-61
2022/01/20 02:51:50;;;;;;;46.38;30.30;;;0.20;99.90;;;;;;5093824;28;20028;-63
2022/01/20 02:54:17;;;;;;;46.42;30.98;;;0.30;99.90;;;;;;5091399;28;20115;-61
2022/01/20 02:56:43;;;;;;;49.03;32.72;;;0.40;99.90;;;;;;5098441;28;20093;-62
2022/01/20 02:59:09;;;;;;;48.70;32.75;;;0.40;99.90;;;;;;5076643;28;20424;-62
2022/01/20 03:01:35;;;;;;;53.97;34.25;;;0.50;99.90;;;;;;5102827;28;20433;-62
2022/01/20 03:04:03;;;;;;;61.40;37.05;;;0.70;99.90;;;;;;5094465;28;20030;-61
2022/01/20 03:06:29;;;;;;;58.63;37.03;;;0.80;99.90;;;;;;5092510;28;20071;-61
2022/01/20 03:08:55;;;;;;;57.45;37.50;;;0.80;99.90;;;;;;5093854;28;20032;-61
2022/01/20 03:11:21;;;;;;;59.38;38.90;;;0.90;99.90;;;;;;5099620;28;20038;-63
2022/01/20 03:13:47;;;;;;;57.25;38.22;;;1.00;99.90;;;;;;5082661;28;20523;-62
2022/01/20 03:16:13;;;;;;;58.92;40.55;;;1.10;99.90;;;;;;5098293;28;20032;-62
2022/01/20 03:18:39;;;;;;;65.35;40.67;;;1.20;99.90;;;;;;5092743;28;20036;-61
2022/01/20 03:21:05;;;;;;;64.03;40.08;;;1.20;99.90;;;;;;5102667;28;20505;-61
2022/01/20 03:23:31;;;;;;;62.65;39.70;;;1.20;99.90;;;;;;5095192;28;20063;-61
2022/01/20 03:25:57;;;;;;;54.85;38.53;;;1.20;99.90;;;;;;5097351;28;20029;-61
2022/01/20 03:28:23;;;;;;;53.70;35.25;;;1.20;99.90;;;;;;5092561;28;20024;-62
2022/01/20 03:30:50;;;;;;;59.35;37.38;;;1.30;99.90;;;;;;5090909;28;20036;-61
2022/01/20 03:33:16;;;;;;;57.88;36.88;;;1.40;99.90;;;;;;5089031;28;20040;-62
2022/01/20 03:35:42;;;;;;;58.20;38.67;;;1.50;99.90;;;;;;5091293;28;20054;-62
2022/01/20 03:38:08;;;;;;;55.08;36.92;;;1.50;99.90;;;;;;5074653;28;20032;-63
2022/01/20 03:40:35;;;;;;;44.35;30.25;;;1.50;99.90;;;;;;5074202;28;20036;-63
2022/01/20 03:43:01;;;;;;;46.92;29.55;;;1.40;99.90;;;;;;5087264;28;20032;-63
2022/01/20 03:45:28;;;;;;;41.03;28.23;;;1.40;99.90;;;;;;5074301;28;20028;-62
2022/01/20 03:48:05;;;;;;;34.55;24.02;;;1.40;99.90;;;;;;5093633;28;20024;-63
2022/01/20 03:53:16;;;;;;;29.33;20.65;;;1.40;99.90;;;;;;5092547;28;20158;-62
2022/01/20 03:55:42;;;;;;;28.85;20.38;;;1.50;99.90;;;;;;5091888;28;20094;-64
2022/01/20 03:58:08;;;;;;;32.42;20.42;;;1.40;99.90;;;;;;5088765;28;20509;-63
2022/01/20 04:00:35;;;;;;;32.55;22.52;;;1.50;99.90;;;;;;5082004;28;20067;-63
2022/01/20 04:03:01;;;;;;;36.38;24.70;;;1.50;99.90;;;;;;5078644;28;20127;-62
2022/01/20 04:05:27;;;;;;;34.90;26.17;;;1.50;99.90;;;;;;5061468;28;20036;-64
2022/01/20 04:07:53;;;;;;;42.67;31.13;;;1.50;99.90;;;;;;5070862;28;20383;-63
2022/01/20 04:10:19;;;;;;;44.63;32.05;;;1.30;99.90;;;;;;5071608;28;20037;-63
2022/01/20 04:12:45;;;;;;;47.53;33.70;;;1.40;99.90;;;;;;5075461;28;20090;-63
2022/01/20 04:15:12;;;;;;;45.42;32.40;;;1.40;99.90;;;;;;5071588;28;20039;-63
2022/01/20 04:17:41;;;;;;;46.40;33.75;;;1.40;99.90;;;;;;5079988;28;20043;-62
2022/01/20 04:20:08;;;;;;;43.45;31.38;;;1.40;99.90;;;;;;5069935;28;20040;-62
2022/01/20 04:22:34;;;;;;;36.22;26.25;;;1.40;99.90;;;;;;5067526;28;20051;-63
2022/01/20 04:25:01;;;;;;;36.28;25.33;;;1.30;99.90;;;;;;5058184;28;20024;-63
2022/01/20 04:27:27;;;;;;;34.13;24.15;;;1.20;99.90;;;;;;5069367;28;20036;-62
2022/01/20 04:29:53;;;;;;;31.27;21.73;;;1.30;99.90;;;;;;5072036;28;20067;-62
2022/01/20 04:32:19;;;;;;;33.67;23.25;;;1.20;99.90;;;;;;5061389;28;20056;-61
2022/01/20 04:34:45;;;;;;;38.05;25.33;;;1.20;99.90;;;;;;5075768;28;20032;-64
2022/01/20 04:37:11;;;;;;;35.38;25.05;;;1.10;99.90;;;;;;5080043;28;20032;-63
2022/01/20 04:39:45;;;;;;;33.33;23.65;;;1.10;99.90;;;;;;5078902;28;20499;-65
2022/01/20 04:42:11;;;;;;;34.60;24.98;;;1.00;99.90;;;;;;5077284;28;20079;-65
2022/01/20 04:44:50;;;;;;;33.25;22.98;;;1.00;99.90;;;;;;5074942;28;20040;-64
2022/01/20 04:58:14;;;;;;;48.58;29.08;;;1.10;99.90;;;;;;5074991;28;20122;-64
2022/01/20 05:00:40;;;;;;;49.53;29.92;;;1.00;99.90;;;;;;5077388;28;20048;-63
2022/01/20 05:03:06;;;;;;;44.70;25.63;;;1.10;99.90;;;;;;5085382;28;20427;-64
2022/01/20 05:05:33;;;;;;;40.78;24.27;;;1.10;99.90;;;;;;5075690;28;20028;-64
2022/01/20 05:08:01;;;;;;;43.20;24.70;;;1.00;99.90;;;;;;5086373;28;20098;-65
2022/01/20 05:10:30;;;;;;;48.55;26.02;;;1.10;99.90;;;;;;5079745;28;20409;-65
2022/01/20 05:15:23;;;;;;;44.15;24.92;;;1.30;99.90;;;;;;5075388;28;20040;-64
2022/01/20 05:17:51;;;;;;;47.75;27.63;;;1.20;99.90;;;;;;5052063;28;20514;-66
2022/01/20 05:20:17;;;;;;;46.50;27.05;;;1.30;99.90;;;;;;5071056;28;20086;-65
2022/01/20 05:22:43;;;;;;;46.90;25.27;;;1.30;99.90;;;;;;5070697;28;20500;-64
2022/01/20 05:25:09;;;;;;;45.15;27.17;;;1.10;99.90;;;;;;5071745;28;20041;-64
2022/01/20 05:27:35;;;;;;;48.42;27.67;;;1.20;99.90;;;;;;5071397;28;20062;-64
2022/01/20 05:30:03;;;;;;;47.33;28.73;;;1.20;99.90;;;;;;5069920;28;20040;-64
2022/01/20 05:32:29;;;;;;;43.78;27.17;;;1.20;99.90;;;;;;5071386;28;20037;-64
2022/01/20 05:34:55;;;;;;;44.15;26.55;;;1.20;99.90;;;;;;5072392;28;20040;-65
2022/01/20 05:37:21;;;;;;;38.78;24.25;;;1.10;99.90;;;;;;5051512;28;20052;-63
2022/01/20 05:39:47;;;;;;;36.22;23.13;;;1.10;99.90;;;;;;5071865;28;20037;-64
2022/01/20 05:42:14;;;;;;;37.38;21.70;;;1.20;99.90;;;;;;5070259;28;20044;-64
2022/01/20 05:44:40;;;;;;;37.97;22.88;;;1.10;99.90;;;;;;5047868;28;20036;-64
2022/01/20 05:47:10;;;;;;;46.58;28.45;;;1.10;99.90;;;;;;5066916;28;20040;-64
2022/01/20 05:49:37;;;;;;;44.08;28.95;;;1.10;99.90;;;;;;5085519;28;20041;-64
2022/01/20 05:52:04;;;;;;;58.55;35.67;;;1.10;99.90;;;;;;5070378;28;20044;-64
2022/01/20 05:54:30;;;;;;;62.67;38.72;;;1.10;99.90;;;;;;5071293;28;20127;-64
2022/01/20 05:56:56;;;;;;;62.20;39.45;;;1.10;99.90;;;;;;5060151;28;20471;-64
2022/01/20 05:59:23;;;;;;;69.28;40.00;;;1.10;99.90;;;;;;5062002;28;20046;-65
2022/01/20 06:01:56;;;;;;;67.28;40.90;;;1.10;99.90;;;;;;5095327;28;20313;-65
2022/01/20 06:04:22;;;;;;;61.85;37.53;;;1.10;99.90;;;;;;5094661;28;20247;-64
2022/01/20 06:06:48;;;;;;;46.58;30.80;;;1.20;99.90;;;;;;5084895;28;20036;-64
2022/01/20 06:09:14;;;;;;;40.95;27.10;;;1.30;99.90;;;;;;5092701;28;20028;-64
2022/01/20 06:11:40;;;;;;;33.63;23.02;;;1.30;99.90;;;;;;5071340;28;20042;-64
2022/01/20 06:14:07;;;;;;;42.17;28.85;;;1.30;99.90;;;;;;5089739;28;20044;-66
2022/01/20 06:16:33;;;;;;;53.13;35.58;;;1.30;99.90;;;;;;5075967;28;20036;-66
2022/01/20 06:18:59;;;;;;;53.72;34.80;;;1.30;99.90;;;;;;5091304;28;20044;-66
2022/01/20 06:21:25;;;;;;;55.72;37.50;;;1.40;99.90;;;;;;5093539;28;20036;-65
2022/01/20 06:23:51;;;;;;;54.63;36.08;;;1.30;99.90;;;;;;5072705;28;20123;-64
2022/01/20 06:26:17;;;;;;;49.85;35.58;;;1.30;99.90;;;;;;5093022;28;20097;-65
2022/01/20 06:28:43;;;;;;;44.25;30.13;;;1.50;99.90;;;;;;5090105;28;20066;-65
2022/01/20 06:31:10;;;;;;;41.97;27.40;;;1.70;99.90;;;;;;5071786;28;20036;-66
2022/01/20 06:33:36;;;;;;;39.47;27.80;;;1.70;99.90;;;;;;5071615;28;20059;-64
2022/01/20 06:36:03;;;;;;;40.65;28.10;;;1.70;99.90;;;;;;5090303;28;20032;-64
2022/01/20 06:38:29;;;;;;;37.30;28.17;;;1.70;99.90;;;;;;5092655;28;20040;-66
2022/01/20 06:40:55;;;;;;;40.67;28.25;;;1.70;99.90;;;;;;5089054;28;20040;-65
2022/01/20 06:43:21;;;;;;;38.67;28.67;;;1.90;99.90;;;;;;5075661;28;20069;-65
2022/01/20 06:45:48;;;;;;;41.55;28.80;;;1.80;99.90;;;;;;5085993;28;20033;-65
2022/01/20 06:48:14;;;;;;;39.60;27.90;;;1.90;99.90;;;;;;5075064;28;20036;-66
2022/01/20 06:50:40;;;;;;;37.65;27.45;;;1.90;99.90;;;;;;5092220;28;20035;-64
2022/01/20 06:53:06;;;;;;;40.35;27.48;;;2.00;99.90;;;;;;5091455;28;20032;-67
2022/01/20 06:55:34;;;;;;;38.03;28.08;;;2.10;99.90;;;;;;5091114;28;20429;-65
2022/01/20 06:58:00;;;;;;;43.17;29.13;;;2.10;99.90;;;;;;5087025;28;20043;-64
2022/01/20 07:00:26;;;;;;;39.88;28.90;;;2.20;99.90;;;;;;5092898;28;20048;-65
2022/01/20 07:02:52;;;;;;;39.88;30.20;;;2.20;99.90;;;;;;5090951;28;20044;-63
2022/01/20 07:05:21;;;;;;;42.70;31.65;;;2.10;99.90;;;;;;5089532;28;20164;-65
2022/01/20 07:07:47;;;;;;;47.33;32.78;;;2.30;99.90;;;;;;5092733;28;20068;-65
2022/01/20 07:10:17;;;;;;;43.90;32.88;;;2.50;99.90;;;;;;5076210;28;20036;-66
2022/01/20 07:12:44;;;;;;;43.97;33.03;;;2.40;99.90;;;;;;5073078;28;20731;-65
2022/01/20 07:15:11;;;;;;;45.53;33.47;;;2.30;99.90;;;;;;5098843;28;20028;-65
2022/01/20 07:17:37;;;;;;;45.70;32.70;;;2.30;99.90;;;;;;5095069;28;20118;-67
2022/01/20 07:20:04;;;;;;;43.60;32.30;;;2.40;99.90;;;;;;5093399;28;20442;-65
2022/01/20 07:22:30;;;;;;;43.38;30.65;;;2.50;99.90;;;;;;5074791;28;20104;-66
2022/01/20 07:24:56;;;;;;;41.53;30.65;;;2.50;99.90;;;;;;5077354;28;20043;-66
2022/01/20 07:27:22;;;;;;;44.17;31.05;;;2.30;99.90;;;;;;5095694;28;20036;-66
2022/01/20 07:29:48;;;;;;;37.90;29.75;;;2.20;99.90;;;;;;5095056;28;20036;-66
2022/01/20 07:32:14;;;;;;;45.95;31.35;;;2.30;99.90;;;;;;5093697;28;20490;-66
2022/01/20 07:34:41;;;;;;;50.53;34.47;;;2.10;99.90;;;;;;5076007;28;20126;-65
2022/01/20 07:37:07;;;;;;;50.50;34.80;;;2.10;99.90;;;;;;5092771;28;20031;-65
2022/01/20 07:39:33;;;;;;;53.78;38.03;;;2.10;99.90;;;;;;5090395;28;20032;-65
2022/01/20 07:41:59;;;;;;;61.22;42.95;;;2.20;99.90;;;;;;5088134;28;20551;-66
2022/01/20 07:44:25;;;;;;;72.10;49.22;;;2.20;99.90;;;;;;5091128;28;20043;-66
2022/01/20 07:46:52;;;;;;;66.47;46.08;;;2.30;99.90;;;;;;5073731;28;20081;-66
2022/01/20 07:49:19;;;;;;;61.03;43.35;;;2.20;99.90;;;;;;5073446;28;20055;-66
2022/01/20 07:51:45;;;;;;;57.45;40.15;;;2.30;99.90;;;;;;5090931;28;20067;-67
2022/01/20 07:54:11;;;;;;;53.60;38.55;;;2.20;99.90;;;;;;5073935;28;20060;-65
2022/01/20 07:56:37;;;;;;;50.42;36.28;;;2.30;99.90;;;;;;5091300;28;20687;-65
2022/01/20 07:59:03;;;;;;;54.85;39.40;;;2.40;99.90;;;;;;5092003;28;20499;-65
2022/01/20 08:01:29;;;;;;;53.53;37.70;;;2.20;99.90;;;;;;5088857;28;20109;-65
2022/01/20 08:03:55;;;;;;;47.13;36.10;;;2.30;99.90;;;;;;5071778;28;20028;-66
2022/01/20 08:06:24;;;;;;;48.25;36.75;;;2.50;99.90;;;;;;5092372;28;20039;-66
2022/01/20 08:08:51;;;;;;;48.00;35.75;;;2.50;99.90;;;;;;5092381;28;20584;-65
2022/01/20 08:11:19;;;;;;;49.67;37.50;;;2.30;99.90;;;;;;5090300;28;20039;-65
2022/01/20 08:13:45;;;;;;;54.05;38.28;;;2.20;99.90;;;;;;5091531;28;20035;-65
2022/01/20 08:16:11;;;;;;;52.45;39.85;;;2.20;99.90;;;;;;5071900;28;20355;-68
2022/01/20 08:18:37;;;;;;;50.22;35.65;;;2.40;99.90;;;;;;5087811;28;20031;-67
2022/01/20 08:21:04;;;;;;;48.45;36.15;;;2.60;99.90;;;;;;5086624;28;20043;-66
2022/01/20 08:23:30;;;;;;;48.83;34.63;;;2.70;99.90;;;;;;5088770;28;20042;-65
2022/01/20 08:25:56;;;;;;;40.40;29.33;;;2.80;99.90;;;;;;5070473;28;20038;-65
2022/01/20 08:28:23;;;;;;;39.75;30.33;;;2.40;99.90;;;;;;5091940;28;20036;-65
2022/01/20 08:30:52;;;;;;;36.22;27.13;;;2.60;99.90;;;;;;5088825;28;20035;-65
2022/01/20 08:33:18;;;;;;;38.17;28.02;;;2.80;99.90;;;;;;5090126;28;20028;-66
2022/01/20 08:35:44;;;;;;;36.42;27.17;;;3.00;99.90;;;;;;5090900;28;20036;-65
2022/01/20 08:38:11;;;;;;;38.42;29.25;;;3.10;99.90;;;;;;5091580;28;20501;-64
2022/01/20 08:40:38;;;;;;;43.50;30.38;;;3.00;99.90;;;;;;5077024;28;20040;-66
2022/01/20 08:43:06;;;;;;;42.22;31.73;;;2.90;99.90;;;;;;5089979;28;20028;-65
2022/01/20 08:45:35;;;;;;;42.92;32.08;;;3.10;99.90;;;;;;5071723;28;20123;-65
2022/01/20 08:48:02;;;;;;;44.05;31.00;;;3.00;99.90;;;;;;5069586;28;20053;-67
2022/01/20 08:50:29;;;;;;;46.20;33.53;;;3.10;99.90;;;;;;5087646;28;20024;-65
2022/01/20 08:52:56;;;;;;;40.60;30.00;;;3.40;99.90;;;;;;5070375;28;20035;-65
2022/01/20 08:55:23;;;;;;;41.17;31.88;;;3.20;99.90;;;;;;5067796;28;20036;-65
2022/01/20 08:57:49;;;;;;;40.90;29.65;;;3.50;99.90;;;;;;5088181;28;20036;-66
2022/01/20 09:00:17;;;;;;;39.17;29.60;;;3.30;99.90;;;;;;5085279;28;20116;-65
2022/01/20 09:02:43;;;;;;;41.70;30.40;;;3.30;99.90;;;;;;5078227;28;20037;-65
2022/01/20 09:05:09;;;;;;;36.85;27.75;;;3.00;99.90;;;;;;5078022;28;20035;-64
2022/01/20 09:07:35;;;;;;;35.33;28.08;;;3.00;99.90;;;;;;5062234;28;20052;-65
2022/01/20 09:10:04;;;;;;;38.38;27.98;;;3.00;99.90;;;;;;5063088;28;20029;-64
2022/01/20 09:17:46;;;;;;;38.00;29.52;;;3.00;99.90;;;;;;5075866;28;20039;-64
2022/01/20 09:20:14;;;;;;;43.58;31.70;;;3.00;99.90;;;;;;5080148;28;20033;-65
2022/01/20 09:22:41;;;;;;;41.88;31.60;;;2.80;99.90;;;;;;5077754;28;20486;-63
2022/01/20 09:25:08;;;;;;;46.47;33.47;;;2.50;99.90;;;;;;5087749;28;20028;-63
2022/01/20 09:27:34;;;;;;;43.53;32.83;;;2.50;99.90;;;;;;5079966;28;20453;-63
2022/01/20 09:30:04;;;;;;;39.97;30.88;;;2.50;99.90;;;;;;5079854;28;20024;-64
2022/01/20 09:32:33;;;;;;;41.63;31.85;;;2.50;99.90;;;;;;5082428;28;20051;-64
2022/01/20 09:35:00;;;;;;;38.67;29.60;;;2.40;99.90;;;;;;5085010;28;20074;-64
2022/01/20 09:37:26;;;;;;;38.45;29.35;;;2.40;99.90;;;;;;5065039;28;20032;-64
2022/01/20 09:39:52;;;;;;;39.50;29.42;;;2.30;99.90;;;;;;5067587;28;20123;-63
2022/01/20 09:42:18;;;;;;;38.63;31.08;;;2.40;99.90;;;;;;5057454;28;20044;-63
2022/01/20 09:44:46;;;;;;;38.58;30.90;;;2.30;99.90;;;;;;5078032;28;20579;-65
2022/01/20 09:47:13;;;;;;;40.20;30.20;;;2.40;99.90;;;;;;5076681;28;20037;-64
2022/01/20 09:49:39;;;;;;;35.65;28.05;;;2.50;99.90;;;;;;5083308;28;20545;-65
2022/01/20 09:52:05;;;;;;;42.50;31.20;;;2.50;99.90;;;;;;5069270;28;20044;-63
2022/01/20 09:54:31;;;;;;;36.97;30.02;;;2.60;99.90;;;;;;5085994;28;20044;-64
2022/01/20 09:56:58;;;;;;;40.90;29.98;;;2.60;99.90;;;;;;5079306;28;20041;-64
2022/01/20 09:59:25;;;;;;;36.95;28.92;;;2.70;99.90;;;;;;5065608;28;20055;-65
2022/01/20 10:01:58;;;;;;;38.45;29.55;;;2.60;99.90;;;;;;5086142;28;20048;-63
2022/01/20 10:04:37;;;;;;;39.67;29.10;;;2.50;99.90;;;;;;5079345;28;20044;-64
2022/01/20 10:07:13;;;;;;;39.63;28.23;;;2.60;99.90;;;;;;5080041;28;20107;-64
2022/01/20 10:09:42;;;;;;;39.88;30.65;;;2.50;99.90;;;;;;5085029;28;20033;-64
2022/01/20 10:12:10;;;;;;;41.55;30.95;;;2.60;99.90;;;;;;5085726;28;20316;-64
2022/01/20 10:14:46;;;;;;;43.17;31.90;;;2.70;99.90;;;;;;5057907;28;20043;-64
2022/01/20 10:17:22;;;;;;;45.03;33.08;;;2.70;99.90;;;;;;5076745;28;20112;-63
2022/01/20 10:20:01;;;;;;;45.63;31.17;;;2.60;99.90;;;;;;5078078;28;20059;-63
2022/01/20 10:22:28;;;;;;;44.45;31.75;;;2.60;99.90;;;;;;5087362;28;20033;-66
2022/01/20 10:25:08;;;;;;;39.83;28.95;;;2.80;99.90;;;;;;5081275;28;20456;-66
2022/01/20 10:27:46;;;;;;;41.88;30.42;;;3.00;99.90;;;;;;5087561;28;20039;-64
2022/01/20 10:30:12;;;;;;;40.10;28.90;;;2.90;99.90;;;;;;5059746;28;20032;-64
2022/01/20 10:32:44;;;;;;;38.25;28.55;;;3.00;99.90;;;;;;5066937;28;20042;-63
2022/01/20 10:35:13;;;;;;;38.00;27.63;;;2.80;99.90;;;;;;5077363;28;20072;-63
2022/01/20 10:38:20;;;;;;;37.20;27.95;;;2.90;99.90;;;;;;5081969;28;20028;-65
2022/01/20 10:40:59;;;;;;;36.88;26.67;;;2.90;99.90;;;;;;5074453;28;20133;-64
2022/01/20 10:43:40;;;;;;;42.80;31.85;;;2.80;99.90;;;;;;5076648;28;20363;-63
2022/01/20 10:46:12;;;;;;;47.53;34.78;;;2.80;99.90;;;;;;5081049;28;20032;-64
2022/01/20 10:48:39;;;;;;;51.53;36.30;;;2.60;99.90;;;;;;5083016;28;20028;-64
2022/01/20 10:51:19;;;;;;;44.97;33.03;;;2.40;99.90;;;;;;5065664;28;20064;-64
2022/01/20 10:53:55;;;;;;;40.50;29.65;;;2.40;99.90;;;;;;5082538;28;20105;-64
2022/01/20 10:56:22;;;;;;;44.90;30.15;;;2.30;99.90;;;;;;5081565;28;20474;-63
2022/01/20 10:58:48;;;;;;;45.80;31.65;;;2.50;99.90;;;;;;5079294;28;20075;-64
2022/01/20 11:01:17;;;;;;;50.08;33.50;;;2.50;99.90;;;;;;5077408;28;20060;-63
2022/01/20 11:03:43;;;;;;;48.33;33.70;;;2.50;99.90;;;;;;5077019;28;20041;-63
2022/01/20 11:06:09;;;;;;;48.60;33.63;;;2.50;99.90;;;;;;5080984;28;20028;-62
2022/01/20 11:08:40;;;;;;;53.53;35.83;;;2.20;99.90;;;;;;5081698;28;20052;-63
2022/01/20 11:11:07;;;;;;;48.60;35.60;;;2.10;99.90;;;;;;5058842;28;20059;-64
2022/01/20 11:13:33;;;;;;;60.22;37.72;;;2.00;99.90;;;;;;5078099;28;20405;-63
2022/01/20 11:15:59;;;;;;;55.20;37.47;;;2.00;99.90;;;;;;5081506;28;20032;-63
2022/01/20 11:18:29;;;;;;;56.08;37.95;;;2.00;99.90;;;;;;5081473;28;20068;-63
2022/01/20 11:20:56;;;;;;;54.58;35.78;;;1.80;99.90;;;;;;5079178;28;20028;-64
2022/01/20 11:23:22;;;;;;;56.58;37.55;;;1.90;99.90;;;;;;5079254;28;20028;-63
2022/01/20 11:26:03;;;;;;;60.95;39.33;;;2.00;99.90;;;;;;5061094;28;20402;-64
2022/01/20 11:28:29;;;;;;;56.17;39.35;;;1.80;99.90;;;;;;5057529;28;20033;-62
2022/01/20 11:31:04;;;;;;;71.25;43.67;;;1.70;99.90;;;;;;5078026;28;20032;-64
2022/01/20 11:33:37;;;;;;;74.38;46.45;;;1.70;99.90;;;;;;5080141;28;20043;-63
2022/01/20 11:36:23;;;;;;;76.95;47.47;;;1.60;99.90;;;;;;5082299;28;20119;-63
2022/01/20 11:39:05;;;;;;;74.00;46.72;;;1.50;99.90;;;;;;5065806;28;20040;-63
2022/01/20 11:41:49;;;;;;;77.88;47.38;;;1.30;99.90;;;;;;5057455;28;20071;-62
2022/01/20 11:44:18;;;;;;;72.93;46.30;;;1.40;99.90;;;;;;5073010;28;20422;-62
2022/01/20 11:46:46;;;;;;;80.18;48.63;;;1.40;99.90;;;;;;5060824;28;20111;-63
2022/01/20 11:49:15;;;;;;;83.18;48.92;;;1.40;99.90;;;;;;5080236;28;20037;-62
2022/01/20 11:51:53;;;;;;;73.10;47.88;;;1.30;99.90;;;;;;5075969;28;20063;-62
2022/01/20 11:54:34;;;;;;;69.93;46.33;;;1.30;99.90;;;;;;5081916;28;20032;-63
2022/01/20 11:57:10;;;;;;;81.57;46.47;;;1.20;99.90;;;;;;5080034;28;20044;-64
2022/01/20 11:59:49;;;;;;;74.32;47.33;;;1.20;99.90;;;;;;5079240;28;20486;-63
2022/01/20 12:02:32;;;;;;;81.30;48.45;;;1.30;99.90;;;;;;5054178;28;20036;-62
2022/01/20 12:05:00;;;;;;;76.75;46.53;;;1.30;99.90;;;;;;5076200;28;20055;-63
2022/01/20 12:07:29;;;;;;;76.28;47.00;;;1.30;99.90;;;;;;5075205;28;20068;-64
2022/01/20 12:10:17;;;;;;;74.07;45.72;;;1.20;99.90;;;;;;5069067;28;20356;-63
2022/01/20 12:12:44;;;;;;;78.38;50.08;;;1.20;99.90;;;;;;5078929;28;20045;-64
2022/01/20 12:15:17;;;;;;;82.88;50.03;;;1.40;99.90;;;;;;5065794;28;20040;-64
2022/01/20 12:17:56;;;;;;;84.88;51.72;;;1.30;99.90;;;;;;5078188;28;20391;-64
2022/01/20 12:20:23;;;;;;;83.15;49.45;;;1.30;99.90;;;;;;5068931;28;20033;-63
2022/01/20 12:22:51;;;;;;;84.43;49.17;;;1.30;99.90;;;;;;5054290;28;20040;-64
2022/01/20 12:25:22;;;;;;;76.80;48.40;;;1.30;99.90;;;;;;5054049;28;20127;-65
2022/01/20 12:27:52;;;;;;;80.45;49.47;;;1.40;99.90;;;;;;5055125;28;20036;-63
2022/01/20 12:30:23;;;;;;;79.22;48.35;;;1.40;99.90;;;;;;5072258;28;20037;-64
2022/01/20 12:33:10;;;;;;;84.15;51.22;;;1.30;99.90;;;;;;5056939;28;20037;-63
2022/01/20 12:35:51;;;;;;;97.72;60.00;;;1.30;99.90;;;;;;5053767;28;20037;-63
2022/01/20 12:38:22;;;;;;;99.30;60.60;;;1.10;99.90;;;;;;5073063;28;20037;-63
2022/01/20 12:41:04;;;;;;;95.28;59.03;;;1.10;99.90;;;;;;5071167;28;20037;-63
2022/01/20 12:43:40;;;;;;;103.25;62.40;;;1.10;99.90;;;;;;5036879;28;20063;-63
2022/01/20 12:46:09;;;;;;;100.78;60.58;;;1.30;99.90;;;;;;5054036;28;20032;-64
2022/01/20 12:48:35;;;;;;;98.05;59.33;;;1.30;99.90;;;;;;5051579;28;20475;-63
2022/01/20 12:51:06;;;;;;;94.72;60.35;;;1.30;99.90;;;;;;5071791;28;20031;-63
2022/01/20 12:53:36;;;;;;;99.68;63.88;;;1.40;99.90;;;;;;5054416;28;20039;-65
2022/01/20 12:56:04;;;;;;;108.90;64.90;;;1.50;99.90;;;;;;5054373;28;20040;-64
2022/01/20 12:58:30;;;;;;;136.95;74.80;;;1.40;99.90;;;;;;5072244;28;20505;-63
2022/01/20 13:01:04;;;;;;;142.43;81.47;;;1.30;99.90;;;;;;5083467;28;20444;-62
2022/01/20 13:03:38;;;;;;;130.63;77.03;;;1.20;99.90;;;;;;5091375;28;20055;-63
2022/01/20 13:06:11;;;;;;;136.07;78.50;;;1.10;99.90;;;;;;5085575;28;20032;-63
2022/01/20 13:08:40;;;;;;;105.47;61.55;;;1.10;99.90;;;;;;5071727;28;20032;-63
2022/01/20 13:11:11;;;;;;;103.18;57.97;;;1.00;99.90;;;;;;5074204;28;20189;-63
2022/01/20 13:13:37;;;;;;;96.80;53.75;;;1.00;99.90;;;;;;5092793;28;20083;-64
2022/01/20 13:16:14;;;;;;;98.80;59.25;;;1.10;99.90;;;;;;5113533;28;20040;-64
2022/01/20 13:18:57;;;;;;;100.05;53.55;;;1.10;99.90;;;;;;5087408;28;20410;-65
2022/01/20 13:21:54;;;;;;;104.10;56.25;;;1.10;99.90;;;;;;5092415;28;20036;-67
2022/01/20 13:24:30;;;;;;;96.70;50.58;;;1.10;99.90;;;;;;5070329;28;20084;-64
2022/01/20 13:26:58;;;;;;;92.55;50.15;;;0.90;99.90;;;;;;5092656;28;20028;-63
2022/01/20 13:29:27;;;;;;;91.40;52.00;;;0.90;99.90;;;;;;5074323;28;20032;-63
2022/01/20 13:31:58;;;;;;;85.38;51.13;;;1.00;99.90;;;;;;5092573;28;20036;-63
2022/01/20 13:34:24;;;;;;;88.85;51.05;;;1.10;99.90;;;;;;5091833;28;20036;-63
2022/01/20 13:36:53;;;;;;;93.30;50.20;;;1.20;99.90;;;;;;5083659;28;20111;-63
2022/01/20 13:39:31;;;;;;;94.10;51.88;;;1.20;99.90;;;;;;5084380;28;20031;-63
2022/01/20 13:42:45;;;;;;;100.20;56.20;;;1.30;99.90;;;;;;5076954;28;20036;-63
2022/01/20 13:45:17;;;;;;;107.30;56.75;;;1.20;99.90;;;;;;5080244;28;20060;-64
2022/01/20 13:47:57;;;;;;;97.53;50.25;;;1.20;99.90;;;;;;5061176;28;20037;-63
2022/01/20 13:50:28;;;;;;;87.90;48.42;;;1.20;99.90;;;;;;5072035;28;20452;-62
2022/01/20 13:52:55;;;;;;;85.18;46.50;;;1.20;99.90;;;;;;5072261;28;20036;-62
2022/01/20 13:55:21;;;;;;;83.95;47.95;;;1.00;99.90;;;;;;5054244;28;20041;-66